Time;durP1;ratioP1;P1;durP2;ratioP2;P2;SDS_P1;SDS_P2;PMS_P1;PMS_P2;Temp;Humidity;BMP_temperature;BMP_pressure;BME280_temperature;BME280_humidity;BME280_pressure;Samples;Min_cycle;Max_cycle;Signal;HPM_P1;HPM_P2
2022/06/08 00:01:22;;;;;;;3.50;2.10;;;24.80;65.20;;;;;;220960;1265;22703;-59
2022/06/08 00:06:28;;;;;;;3.60;2.00;;;24.80;65.10;;;;;;220803;1264;26488;-59
2022/06/08 00:11:32;;;;;;;3.30;2.40;;;24.80;66.10;;;;;;222387;1264;22515;-58
2022/06/08 00:16:36;;;;;;;3.80;2.10;;;24.80;65.10;;;;;;220935;1265;22685;-60
2022/06/08 00:21:40;;;;;;;3.70;1.90;;;24.80;65.60;;;;;;220604;1265;22563;-61
2022/06/08 00:26:48;;;;;;;2.50;2.00;;;24.80;65.30;;;;;;221099;1265;25413;-60
2022/06/08 00:32:01;;;;;;;3.90;1.80;;;24.80;65.30;;;;;;221352;1265;22713;-63
2022/06/08 00:37:14;;;;;;;3.20;2.10;;;24.80;65.60;;;;;;220634;1265;23897;-59
2022/06/08 00:42:20;;;;;;;3.20;2.10;;;24.70;66.20;;;;;;221296;1264;22522;-59
2022/06/08 00:47:31;;;;;;;3.50;2.00;;;24.80;65.50;;;;;;221112;1265;22677;-60
2022/06/08 00:52:34;;;;;;;3.50;2.00;;;24.80;65.20;;;;;;220822;1265;24269;-60
2022/06/08 00:57:42;;;;;;;3.40;2.40;;;24.80;65.60;;;;;;220905;1265;22642;-60
2022/06/08 01:02:46;;;;;;;4.60;2.20;;;24.80;65.80;;;;;;220976;1265;22554;-59
2022/06/08 01:07:56;;;;;;;3.50;2.10;;;24.80;65.70;;;;;;221092;1264;22694;-61
2022/06/08 01:13:04;;;;;;;4.90;2.40;;;24.70;65.60;;;;;;221130;1265;23958;-60
2022/06/08 01:18:10;;;;;;;3.00;2.00;;;24.70;65.90;;;;;;221082;1265;24339;-61
2022/06/08 01:23:15;;;;;;;3.70;2.20;;;24.70;65.30;;;;;;220841;1265;24232;-59
2022/06/08 01:28:28;;;;;;;4.70;2.20;;;24.70;65.20;;;;;;221078;1265;22520;-61
2022/06/08 01:33:59;;;;;;;4.20;2.00;;;24.70;65.30;;;;;;220896;1265;22542;-60
2022/06/08 01:39:16;;;;;;;2.80;2.00;;;24.70;65.60;;;;;;221092;1265;24370;-60
2022/06/08 01:45:43;;;;;;;2.70;1.70;;;24.70;65.60;;;;;;221337;1265;22558;-60
2022/06/08 01:50:55;;;;;;;3.50;2.10;;;24.70;65.70;;;;;;220689;1267;25449;-61
2022/06/08 01:56:06;;;;;;;2.40;1.80;;;24.70;66.20;;;;;;220832;1265;22999;-58
2022/06/08 02:01:22;;;;;;;3.90;2.10;;;24.70;65.70;;;;;;220919;1265;22525;-60
2022/06/08 02:06:43;;;;;;;3.40;2.10;;;24.70;65.40;;;;;;220657;1267;22546;-57
2022/06/08 02:11:59;;;;;;;3.80;2.40;;;24.70;65.70;;;;;;226209;1265;22552;-57
2022/06/08 02:17:17;;;;;;;2.90;1.90;;;24.70;65.90;;;;;;220718;1265;26488;-59
2022/06/08 02:22:29;;;;;;;2.50;1.80;;;24.70;65.40;;;;;;221285;1265;25495;-59
2022/06/08 02:27:40;;;;;;;2.70;1.80;;;24.70;65.60;;;;;;221063;1265;23148;-59
2022/06/08 02:38:24;;;;;;;4.20;2.10;;;24.70;65.70;;;;;;221049;1265;24239;-59
2022/06/08 02:44:04;;;;;;;3.10;2.00;;;24.70;65.50;;;;;;220251;1267;25343;-60
2022/06/08 02:49:09;;;;;;;2.40;1.80;;;24.70;65.50;;;;;;220955;1267;25238;-58
2022/06/08 02:54:21;;;;;;;2.70;1.90;;;24.60;65.50;;;;;;220650;1267;24420;-58
2022/06/08 02:59:52;;;;;;;3.60;1.80;;;24.60;65.60;;;;;;221090;1265;22578;-61
2022/06/08 03:05:22;;;;;;;4.00;2.10;;;24.60;65.80;;;;;;220828;1267;22545;-58
2022/06/08 03:10:30;;;;;;;2.80;1.80;;;24.60;65.70;;;;;;220672;1267;22563;-58
2022/06/08 03:15:35;;;;;;;2.30;1.80;;;24.60;65.80;;;;;;220784;1267;24246;-58
2022/06/08 03:20:40;;;;;;;3.90;2.10;;;24.60;65.60;;;;;;220878;1265;24276;-61
2022/06/08 03:25:44;;;;;;;3.80;2.00;;;24.60;65.80;;;;;;221052;1265;25302;-60
2022/06/08 03:30:48;;;;;;;4.80;2.40;;;24.60;65.60;;;;;;221071;1265;24483;-63
2022/06/08 03:35:52;;;;;;;2.70;1.80;;;24.60;65.90;;;;;;221008;1265;23946;-61
2022/06/08 03:40:57;;;;;;;2.60;1.80;;;24.50;66.10;;;;;;220783;1265;22695;-62
2022/06/08 03:46:04;;;;;;;5.10;2.50;;;24.60;65.80;;;;;;221175;1265;22663;-59
2022/06/08 03:51:08;;;;;;;5.10;2.00;;;24.60;65.60;;;;;;220852;1265;22549;-60
2022/06/08 03:56:16;;;;;;;3.30;2.00;;;24.50;65.80;;;;;;221005;1265;26604;-59
2022/06/08 04:01:21;;;;;;;3.20;1.70;;;24.50;65.70;;;;;;220886;1265;24300;-60
2022/06/08 04:06:28;;;;;;;3.00;1.90;;;24.50;65.50;;;;;;221157;1265;22522;-60
2022/06/08 04:11:36;;;;;;;5.60;1.90;;;24.50;65.70;;;;;;220962;1268;24353;-60
2022/06/08 04:16:40;;;;;;;3.30;1.90;;;24.50;65.70;;;;;;221056;1265;22529;-58
2022/06/08 04:21:46;;;;;;;4.70;2.00;;;24.60;65.70;;;;;;220618;1267;24239;-59
2022/06/08 04:27:10;;;;;;;2.90;1.60;;;24.50;65.80;;;;;;220796;1267;23931;-59
2022/06/08 04:32:34;;;;;;;3.90;2.00;;;24.50;66.10;;;;;;221000;1265;24217;-61
2022/06/08 04:37:39;;;;;;;3.30;1.70;;;24.50;65.70;;;;;;221171;1265;22752;-60
2022/06/08 04:42:43;;;;;;;2.80;1.70;;;24.50;65.60;;;;;;220829;1267;24414;-59
2022/06/08 04:47:47;;;;;;;2.80;2.00;;;24.50;65.70;;;;;;220927;1266;24254;-59
2022/06/08 04:52:52;;;;;;;4.00;2.00;;;24.60;66.30;;;;;;221137;1265;22522;-60
2022/06/08 04:57:56;;;;;;;2.50;1.60;;;24.50;66.10;;;;;;221117;1264;25193;-61
2022/06/08 05:03:02;;;;;;;4.50;2.00;;;24.50;65.60;;;;;;220979;1265;22548;-60
2022/06/08 05:08:12;;;;;;;2.20;1.70;;;24.60;65.60;;;;;;221160;1265;25237;-59
2022/06/08 05:13:20;;;;;;;4.60;1.70;;;24.60;65.70;;;;;;221005;1265;24323;-62
2022/06/08 05:18:31;;;;;;;3.10;1.90;;;24.50;65.50;;;;;;221099;1265;22557;-59
2022/06/08 05:23:39;;;;;;;2.20;1.50;;;24.60;65.90;;;;;;221177;1265;22550;-61
2022/06/08 05:28:49;;;;;;;3.30;1.70;;;24.60;65.80;;;;;;220940;1267;24415;-59
2022/06/08 05:33:57;;;;;;;4.10;1.50;;;24.60;65.70;;;;;;220561;1265;25326;-59
2022/06/08 05:39:02;;;;;;;4.20;1.70;;;24.60;66.30;;;;;;220760;1265;26627;-60
2022/06/08 05:44:12;;;;;;;2.10;1.40;;;24.70;66.30;;;;;;220918;1265;22607;-58
2022/06/08 05:49:18;;;;;;;4.10;1.90;;;24.70;65.80;;;;;;220503;1267;24222;-61
2022/06/08 05:54:24;;;;;;;7.30;2.10;;;24.70;65.90;;;;;;221157;1265;22602;-59
2022/06/08 05:59:27;;;;;;;3.90;2.20;;;24.70;66.40;;;;;;220723;1265;22570;-61
2022/06/08 06:04:32;;;;;;;4.50;2.10;;;24.80;66.90;;;;;;220990;1265;22565;-59
2022/06/08 06:09:37;;;;;;;5.60;2.10;;;24.80;65.80;;;;;;220642;1265;23900;-57
2022/06/08 06:14:42;;;;;;;6.70;2.10;;;24.80;66.80;;;;;;221049;1264;22538;-60
2022/06/08 06:19:46;;;;;;;4.20;2.20;;;24.80;66.40;;;;;;221142;1267;24940;-61
2022/06/08 06:25:13;;;;;;;4.30;1.90;;;24.90;66.40;;;;;;220481;1267;25758;-58
2022/06/08 06:30:41;;;;;;;4.20;2.10;;;24.90;66.80;;;;;;220900;1265;25455;-58
2022/06/08 06:36:22;;;;;;;;;;;25.00;66.50;;;;;;220499;1268;24418;-59
2022/06/08 06:41:28;;;;;;;3.60;1.90;;;25.00;66.00;;;;;;221134;1265;22535;-61
2022/06/08 06:46:32;;;;;;;7.30;2.40;;;25.00;66.20;;;;;;220633;1265;24217;-60
2022/06/08 06:51:44;;;;;;;8.70;2.90;;;25.00;66.70;;;;;;220758;1265;413969;-59
2022/06/08 06:56:54;;;;;;;16.50;4.10;;;25.00;66.50;;;;;;221197;1265;24298;-60
2022/06/08 07:02:02;;;;;;;8.30;2.80;;;24.90;65.90;;;;;;220820;1266;22675;-60
2022/06/08 07:07:08;;;;;;;5.30;2.40;;;24.90;64.80;;;;;;220797;1265;25295;-59
2022/06/08 07:12:13;;;;;;;6.60;2.80;;;24.90;65.60;;;;;;220846;1265;22741;-60
2022/06/08 07:17:28;;;;;;;5.30;3.00;;;24.90;64.70;;;;;;221011;1265;24529;-61
2022/06/08 07:22:35;;;;;;;3.80;2.30;;;24.90;64.10;;;;;;220969;1265;26821;-60
2022/06/08 07:27:39;;;;;;;5.20;2.50;;;24.80;64.30;;;;;;221309;1265;25232;-60
2022/06/08 07:32:43;;;;;;;4.80;2.80;;;24.80;63.20;;;;;;221117;1268;24105;-60
2022/06/08 07:37:47;;;;;;;6.40;3.10;;;24.80;63.50;;;;;;221182;1265;25235;-61
2022/06/08 07:42:51;;;;;;;6.30;3.30;;;24.80;63.10;;;;;;220961;1265;24357;-60
2022/06/08 07:53:17;;;;;;;6.70;2.40;;;24.80;62.00;;;;;;220832;1265;22522;-60
2022/06/08 07:58:21;;;;;;;5.90;2.80;;;24.80;62.00;;;;;;221026;1265;25325;-60
2022/06/08 08:03:29;;;;;;;5.40;2.80;;;24.80;61.60;;;;;;221013;1265;24357;-61
2022/06/08 08:08:33;;;;;;;4.10;2.50;;;24.90;61.40;;;;;;221017;1265;25775;-60
2022/06/08 08:13:37;;;;;;;4.90;2.60;;;24.90;61.70;;;;;;221197;1265;24120;-61
2022/06/08 08:18:41;;;;;;;5.60;3.30;;;24.90;61.90;;;;;;221243;1265;22530;-60
2022/06/08 19:52:33;;;;;;;10.80;4.50;;;24.30;60.40;;;;;;213546;1306;24294;-50
2022/06/08 19:57:37;;;;;;;6.00;4.40;;;24.40;60.40;;;;;;218584;1283;22732;-50
2022/06/08 20:02:52;;;;;;;7.80;4.60;;;24.50;60.10;;;;;;218254;1284;24454;-50
2022/06/08 20:07:55;;;;;;;11.40;4.70;;;24.50;59.90;;;;;;218192;1284;24280;-53
2022/06/08 20:12:59;;;;;;;12.80;4.30;;;24.50;60.10;;;;;;219643;1273;22559;-53
2022/06/08 20:18:03;;;;;;;11.60;4.70;;;24.50;60.30;;;;;;219518;1273;22566;-50
2022/06/08 20:23:07;;;;;;;19.00;5.20;;;24.50;60.00;;;;;;219659;1273;22509;-50
2022/06/08 20:28:14;;;;;;;9.30;4.50;;;24.50;60.10;;;;;;219362;1273;22635;-53
2022/06/08 20:33:21;;;;;;;11.10;4.50;;;24.60;60.00;;;;;;219637;1273;24021;-50
2022/06/08 20:38:33;;;;;;;12.90;4.90;;;24.60;60.20;;;;;;219413;1274;24235;-50
2022/06/08 20:43:35;;;;;;;10.80;5.60;;;24.60;60.20;;;;;;219395;1273;24300;-49
2022/06/08 20:48:38;;;;;;;9.10;4.50;;;24.60;60.30;;;;;;222378;1274;22556;-50
2022/06/08 20:53:41;;;;;;;7.70;4.70;;;24.50;60.50;;;;;;219505;1273;25355;-49
2022/06/08 20:58:43;;;;;;;7.50;4.70;;;24.60;60.50;;;;;;219345;1273;22849;-49
2022/06/08 21:03:47;;;;;;;7.20;4.20;;;24.60;60.50;;;;;;219314;1273;23028;-52
2022/06/08 21:08:49;;;;;;;6.30;4.60;;;24.60;60.50;;;;;;219234;1273;25475;-50
2022/06/08 21:13:51;;;;;;;7.20;4.70;;;24.60;59.90;;;;;;219379;1273;22585;-49
2022/06/08 21:18:58;;;;;;;7.10;5.20;;;24.60;60.40;;;;;;219847;1273;22820;-49
2022/06/08 21:24:01;;;;;;;7.80;5.30;;;24.60;60.50;;;;;;219489;1273;23954;-48
2022/06/08 21:29:07;;;;;;;7.80;5.30;;;24.60;60.50;;;;;;219725;1273;25254;-50
2022/06/08 21:34:09;;;;;;;6.20;4.80;;;24.60;60.50;;;;;;219683;1273;22604;-50
2022/06/08 21:39:12;;;;;;;9.00;6.00;;;24.60;60.50;;;;;;219562;1273;26540;-49
2022/06/08 21:44:21;;;;;;;6.40;5.60;;;24.50;60.80;;;;;;219733;1273;24108;-51
2022/06/08 21:49:23;;;;;;;8.50;5.30;;;24.60;60.80;;;;;;220048;1273;23060;-50
2022/06/08 21:54:26;;;;;;;9.10;6.00;;;24.50;60.40;;;;;;219951;1273;22546;-51
2022/06/08 21:59:32;;;;;;;14.20;6.60;;;24.50;60.50;;;;;;219410;1273;25307;-49
2022/06/08 22:04:37;;;;;;;10.00;5.90;;;24.50;60.40;;;;;;219365;1273;22728;-49
2022/06/08 22:09:54;;;;;;;11.00;6.40;;;24.60;60.60;;;;;;218744;1276;22649;-47
2022/06/08 22:14:56;;;;;;;13.40;6.20;;;24.50;60.30;;;;;;218826;1276;25310;-49
2022/06/08 22:20:00;;;;;;;8.70;6.00;;;24.50;60.40;;;;;;218710;1276;22799;-50
2022/06/08 22:25:03;;;;;;;8.50;6.20;;;24.50;60.40;;;;;;218898;1276;25391;-48
2022/06/08 22:30:09;;;;;;;6.90;6.20;;;24.50;60.70;;;;;;218893;1276;24285;-48
2022/06/08 22:35:16;;;;;;;7.90;5.90;;;24.50;60.50;;;;;;218816;1276;22537;-51
2022/06/08 22:40:18;;;;;;;8.60;5.30;;;24.50;60.50;;;;;;218835;1276;22772;-53
2022/06/08 22:45:25;;;;;;;7.00;6.10;;;24.40;60.40;;;;;;218789;1276;22557;-53
2022/06/08 22:50:30;;;;;;;6.40;5.60;;;24.50;60.60;;;;;;220005;1273;23140;-49
2022/06/08 22:55:36;;;;;;;10.20;5.60;;;24.50;60.50;;;;;;219776;1275;24295;-52
2022/06/08 23:00:44;;;;;;;11.30;6.10;;;24.50;60.90;;;;;;219083;1274;22554;-49
2022/06/08 23:05:47;;;;;;;6.70;5.30;;;24.50;61.00;;;;;;219045;1273;25343;-50
2022/06/08 23:11:41;;;;;;;6.10;4.80;;;24.50;61.10;;;;;;219374;1273;24257;-52
2022/06/08 23:21:34;;;;;;;8.30;5.80;;;24.50;60.90;;;;;;219171;1274;22556;-52
2022/06/08 23:26:39;;;;;;;6.20;5.50;;;24.50;61.00;;;;;;219426;1273;25339;-50
2022/06/08 23:31:42;;;;;;;6.70;5.40;;;24.50;61.20;;;;;;219453;1273;22769;-52
2022/06/08 23:36:45;;;;;;;10.00;5.10;;;24.50;61.00;;;;;;219910;1271;25267;-49
2022/06/08 23:41:47;;;;;;;7.90;5.50;;;24.50;61.30;;;;;;219512;1271;22698;-52
2022/06/08 23:47:06;;;;;;;6.50;5.20;;;24.50;61.10;;;;;;219921;1270;22541;-54
2022/06/08 23:52:11;;;;;;;6.30;4.50;;;24.50;61.30;;;;;;219802;1271;24344;-53
2022/06/08 23:57:16;;;;;;;6.20;5.00;;;24.50;61.40;;;;;;219945;1273;22572;-51
